createdAt,value
2023-05-03T00:00:30.276Z,84.10
2023-05-03T00:02:57.345Z,84.50
2023-05-03T00:05:26.295Z,84.50
2023-05-03T00:07:53.073Z,84.00
2023-05-03T00:10:20.064Z,84.10
2023-05-03T00:12:46.793Z,84.30
2023-05-03T00:15:13.740Z,84.30
2023-05-03T00:17:40.759Z,84.50
2023-05-03T00:20:08.205Z,84.60
2023-05-03T00:22:35.377Z,85.30
2023-05-03T00:25:02.494Z,85.40
2023-05-03T00:27:29.237Z,85.40
2023-05-03T00:29:56.353Z,85.70
2023-05-03T00:32:23.294Z,85.60
2023-05-03T00:34:57.270Z,85.10
2023-05-03T00:37:25.400Z,85.40
2023-05-03T00:39:53.272Z,85.00
2023-05-03T00:42:20.171Z,85.40
2023-05-03T00:44:47.027Z,84.70
2023-05-03T00:47:15.824Z,84.80
2023-05-03T00:49:42.992Z,85.70
2023-05-03T00:52:10.119Z,85.20
2023-05-03T00:54:37.914Z,85.30
2023-05-03T00:57:05.675Z,85.10
2023-05-03T00:59:34.279Z,85.60
2023-05-03T01:02:01.834Z,85.50
2023-05-03T01:04:29.526Z,85.70
2023-05-03T01:07:18.259Z,85.50
2023-05-03T01:10:04.096Z,86.00
2023-05-03T01:12:45.250Z,86.20
2023-05-03T01:15:21.095Z,86.60
2023-05-03T01:18:20.403Z,86.80
2023-05-03T01:20:49.818Z,86.70
2023-05-03T01:23:22.390Z,86.50
2023-05-03T01:25:53.312Z,86.60
2023-05-03T01:28:20.252Z,86.80
2023-05-03T01:30:50.509Z,87.50
2023-05-03T01:33:21.081Z,86.70
2023-05-03T01:36:13.233Z,87.00
2023-05-03T01:38:40.288Z,86.90
2023-05-03T01:41:11.108Z,87.10
2023-05-03T01:43:40.353Z,87.00
2023-05-03T01:46:07.413Z,87.00
2023-05-03T01:48:34.343Z,87.30
2023-05-03T01:51:01.481Z,87.20
2023-05-03T01:53:28.255Z,87.50
2023-05-03T01:55:55.051Z,87.30
2023-05-03T01:58:21.877Z,88.10
2023-05-03T02:00:49.147Z,87.90
2023-05-03T02:03:16.087Z,88.10
2023-05-03T02:05:43.055Z,88.40
2023-05-03T02:08:09.856Z,88.10
2023-05-03T02:10:36.736Z,88.90
2023-05-03T02:13:03.707Z,88.60
2023-05-03T02:15:31.935Z,88.90
2023-05-03T02:17:58.786Z,89.00
2023-05-03T02:20:25.659Z,89.00
2023-05-03T02:22:52.470Z,89.30
2023-05-03T02:25:19.389Z,89.70
2023-05-03T02:27:46.223Z,89.50
2023-05-03T02:30:13.513Z,90.00
2023-05-03T02:32:40.261Z,89.70
2023-05-03T02:35:07.492Z,90.10
2023-05-03T02:37:34.274Z,90.30
2023-05-03T02:40:01.278Z,90.70
2023-05-03T02:42:28.367Z,90.10
2023-05-03T02:44:55.119Z,90.50
2023-05-03T02:47:21.966Z,91.10
2023-05-03T02:49:48.906Z,90.80
2023-05-03T02:52:15.742Z,91.00
2023-05-03T02:54:42.563Z,91.50
2023-05-03T02:57:09.452Z,91.80
2023-05-03T02:59:36.832Z,91.90
2023-05-03T03:02:03.796Z,92.00
2023-05-03T03:04:30.811Z,91.90
2023-05-03T03:06:57.832Z,92.90
2023-05-03T03:09:24.575Z,92.90
2023-05-03T03:11:52.451Z,92.80
2023-05-03T03:14:19.255Z,92.80
2023-05-03T03:16:46.601Z,92.80
2023-05-03T03:19:13.809Z,93.20
2023-05-03T03:21:40.754Z,93.80
2023-05-03T03:24:07.734Z,93.90
2023-05-03T03:26:34.473Z,94.10
2023-05-03T03:29:01.474Z,94.10
2023-05-03T03:31:28.382Z,93.90
2023-05-03T03:33:55.335Z,94.50
2023-05-03T03:36:22.108Z,94.60
2023-05-03T03:38:48.858Z,94.50
2023-05-03T03:41:15.739Z,94.90
2023-05-03T03:43:42.469Z,95.30
2023-05-03T03:46:09.252Z,95.30
2023-05-03T03:48:36.086Z,95.70
2023-05-03T03:51:02.872Z,95.60
2023-05-03T03:53:29.706Z,96.00
2023-05-03T03:55:56.616Z,96.30
2023-05-03T03:58:23.445Z,95.90
2023-05-03T04:00:51.297Z,96.30
2023-05-03T04:03:18.158Z,96.60
2023-05-03T04:05:45.000Z,96.30
2023-05-03T04:08:11.778Z,96.40
2023-05-03T04:10:38.511Z,96.40
2023-05-03T04:13:05.260Z,96.30
2023-05-03T04:15:32.034Z,96.60
2023-05-03T04:17:58.976Z,96.20
2023-05-03T04:20:25.895Z,96.30
2023-05-03T04:22:52.711Z,96.10
2023-05-03T04:25:19.543Z,96.20
2023-05-03T04:27:47.455Z,96.00
2023-05-03T04:30:15.358Z,96.10
2023-05-03T04:32:42.943Z,96.40
2023-05-03T04:35:12.363Z,96.50
2023-05-03T04:37:40.618Z,96.30
2023-05-03T04:40:09.705Z,96.40
2023-05-03T04:42:36.871Z,96.20
2023-05-03T04:45:06.862Z,96.50
2023-05-03T04:47:34.073Z,96.40
2023-05-03T04:50:02.227Z,96.50
2023-05-03T04:52:29.230Z,96.20
2023-05-03T04:54:56.128Z,96.10
2023-05-03T04:57:22.890Z,96.40
2023-05-03T04:59:50.283Z,96.30
2023-05-03T05:02:17.169Z,96.20
2023-05-03T05:04:43.955Z,95.90
2023-05-03T05:07:11.964Z,95.80
2023-05-03T05:09:38.861Z,96.10
2023-05-03T05:12:05.959Z,95.80
2023-05-03T05:14:33.403Z,95.80
2023-05-03T05:17:00.397Z,95.60
2023-05-03T05:19:27.382Z,95.50
2023-05-03T05:21:54.261Z,95.60
2023-05-03T05:24:21.145Z,95.30
2023-05-03T05:26:48.743Z,95.40
2023-05-03T05:29:15.459Z,95.40
2023-05-03T05:31:42.310Z,95.00
2023-05-03T05:34:09.347Z,95.10
2023-05-03T05:36:36.254Z,95.10
2023-05-03T05:39:03.643Z,94.60
2023-05-03T05:41:30.414Z,94.60
2023-05-03T05:43:58.917Z,94.30
2023-05-03T05:46:25.962Z,94.80
2023-05-03T05:48:52.704Z,94.20
2023-05-03T05:51:20.255Z,93.70
2023-05-03T05:53:47.034Z,93.60
2023-05-03T05:56:14.486Z,93.10
2023-05-03T05:58:41.297Z,93.10
2023-05-03T06:01:08.493Z,93.40
2023-05-03T06:03:35.624Z,92.40
2023-05-03T06:06:02.530Z,92.50
2023-05-03T06:08:29.514Z,91.70
2023-05-03T06:10:56.411Z,91.50
2023-05-03T06:13:23.366Z,90.80
2023-05-03T06:15:50.303Z,90.40
2023-05-03T06:18:17.182Z,88.20
2023-05-03T06:20:44.046Z,87.20
2023-05-03T06:23:10.974Z,84.80
2023-05-03T06:25:37.905Z,82.50
2023-05-03T06:28:04.821Z,80.70
2023-05-03T06:30:31.814Z,78.20
2023-05-03T06:32:58.604Z,75.70
2023-05-03T06:35:25.454Z,73.60
2023-05-03T06:37:52.390Z,70.90
2023-05-03T06:40:19.208Z,71.30
2023-05-03T06:42:46.283Z,70.90
2023-05-03T06:45:13.183Z,67.10
2023-05-03T06:47:42.626Z,67.00
2023-05-03T06:50:10.581Z,65.80
2023-05-03T06:52:37.629Z,66.50
2023-05-03T06:55:04.925Z,69.60
2023-05-03T06:57:31.904Z,65.30
2023-05-03T06:59:59.272Z,65.60
2023-05-03T07:02:26.850Z,67.10
2023-05-03T07:04:54.074Z,67.10
2023-05-03T07:07:21.107Z,68.60
2023-05-03T07:09:48.206Z,68.50
2023-05-03T07:12:16.451Z,68.40
2023-05-03T07:14:43.574Z,68.30
2023-05-03T07:17:10.492Z,67.80
2023-05-03T07:19:38.005Z,69.10
2023-05-03T07:22:05.371Z,68.50
2023-05-03T07:24:32.178Z,68.90
2023-05-03T07:26:59.155Z,70.80
2023-05-03T07:29:27.255Z,71.10
2023-05-03T07:31:54.223Z,72.20
2023-05-03T07:34:21.650Z,71.80
2023-05-03T07:36:48.444Z,71.90
2023-05-03T07:39:15.395Z,72.20
2023-05-03T07:41:42.196Z,72.80
2023-05-03T07:44:09.219Z,73.50
2023-05-03T07:46:36.317Z,74.90
2023-05-03T07:49:04.164Z,73.30
2023-05-03T07:51:35.458Z,67.40
2023-05-03T07:54:02.790Z,62.80
2023-05-03T07:56:29.715Z,61.20
2023-05-03T07:59:07.545Z,61.80
2023-05-03T08:01:36.652Z,55.90
2023-05-03T08:04:04.646Z,55.80
2023-05-03T08:06:32.726Z,56.30
2023-05-03T08:08:59.676Z,53.80
2023-05-03T08:11:29.004Z,52.30
2023-05-03T08:13:56.355Z,52.00
2023-05-03T08:16:23.362Z,49.10
2023-05-03T08:18:50.343Z,47.80
2023-05-03T08:21:17.726Z,51.70
2023-05-03T08:23:45.227Z,51.50
2023-05-03T08:26:14.139Z,51.40
2023-05-03T08:28:41.587Z,49.70
2023-05-03T08:31:08.667Z,46.10
2023-05-03T08:33:35.653Z,46.80
2023-05-03T08:36:03.010Z,50.50
2023-05-03T08:38:29.997Z,50.40
2023-05-03T08:41:00.674Z,46.60
2023-05-03T08:43:29.158Z,47.00
2023-05-03T08:45:56.128Z,50.00
2023-05-03T08:48:23.555Z,49.50
2023-05-03T08:50:52.822Z,49.40
2023-05-03T08:53:19.668Z,51.10
2023-05-03T08:55:46.603Z,51.00
2023-05-03T08:58:13.746Z,50.90
2023-05-03T09:00:45.002Z,46.80
2023-05-03T09:03:12.692Z,45.40
2023-05-03T09:05:41.149Z,46.60
2023-05-03T09:08:13.066Z,44.30
2023-05-03T09:10:41.833Z,44.90
2023-05-03T09:13:09.885Z,44.10
2023-05-03T09:15:37.234Z,41.30
2023-05-03T09:18:08.637Z,42.80
2023-05-03T09:20:36.941Z,47.70
2023-05-03T09:23:03.947Z,47.60
2023-05-03T09:26:05.384Z,44.30
2023-05-03T09:28:41.529Z,46.00
2023-05-03T09:31:08.796Z,43.60
2023-05-03T09:33:36.670Z,43.40
2023-05-03T09:36:05.373Z,41.50
2023-05-03T09:38:34.799Z,42.90
2023-05-03T09:41:01.718Z,44.00
2023-05-03T09:43:28.703Z,43.80
2023-05-03T09:46:14.249Z,48.60
2023-05-03T09:48:42.136Z,45.40
2023-05-03T09:51:11.334Z,41.40
2023-05-03T09:53:39.628Z,41.30
2023-05-03T09:56:10.065Z,43.50
2023-05-03T09:58:37.062Z,46.40
2023-05-03T10:01:03.942Z,45.50
2023-05-03T10:03:41.957Z,43.10
2023-05-03T10:06:31.787Z,39.60
2023-05-03T10:09:05.990Z,39.10
2023-05-03T10:11:36.412Z,40.60
2023-05-03T10:14:05.815Z,41.80
2023-05-03T10:16:40.932Z,42.70
2023-05-03T10:19:15.967Z,43.20
2023-05-03T10:22:04.090Z,45.10
2023-05-03T10:24:31.476Z,47.00
2023-05-03T10:26:58.513Z,43.00
2023-05-03T10:29:37.670Z,41.10
2023-05-03T10:32:28.455Z,43.80
2023-05-03T10:35:05.719Z,43.90
2023-05-03T10:37:34.810Z,42.70
2023-05-03T10:40:10.198Z,42.40
2023-05-03T10:42:56.512Z,40.30
2023-05-03T10:45:28.529Z,40.70
2023-05-03T10:48:10.922Z,39.80
2023-05-03T10:50:39.013Z,38.70
2023-05-03T10:53:06.487Z,37.10
2023-05-03T10:55:33.688Z,38.80
2023-05-03T10:58:01.464Z,38.00
2023-05-03T11:00:38.469Z,38.00
2023-05-03T11:03:39.139Z,35.60
2023-05-03T11:06:06.140Z,36.10
2023-05-03T11:08:37.758Z,36.00
2023-05-03T11:11:09.919Z,36.90
2023-05-03T11:13:37.465Z,37.70
2023-05-03T11:16:06.089Z,38.70
2023-05-03T11:18:33.616Z,39.00
2023-05-03T11:21:00.535Z,43.60
2023-05-03T11:23:30.761Z,43.10
2023-05-03T11:25:58.001Z,40.90
2023-05-03T11:28:25.908Z,39.80
2023-05-03T11:30:53.060Z,39.00
2023-05-03T11:33:20.037Z,38.10
2023-05-03T11:35:46.986Z,36.70
2023-05-03T11:38:13.948Z,37.70
2023-05-03T11:40:41.536Z,36.50
2023-05-03T11:43:08.345Z,37.20
2023-05-03T11:45:48.413Z,39.40
2023-05-03T11:48:16.727Z,40.50
2023-05-03T11:50:45.747Z,40.60
2023-05-03T11:53:17.487Z,40.40
2023-05-03T11:55:48.014Z,41.70
2023-05-03T11:58:16.166Z,42.70
2023-05-03T12:00:51.739Z,41.70
2023-05-03T12:03:21.134Z,41.70
2023-05-03T12:05:49.760Z,42.80
2023-05-03T12:08:20.790Z,43.00
2023-05-03T12:10:51.348Z,43.30
2023-05-03T12:13:38.408Z,43.00
2023-05-03T12:16:14.366Z,45.10
2023-05-03T12:18:51.216Z,46.10
2023-05-03T12:23:55.872Z,43.50
2023-05-03T12:26:23.541Z,44.80
2023-05-03T12:28:50.573Z,45.00
2023-05-03T12:31:18.393Z,42.90
2023-05-03T12:33:58.546Z,41.10
2023-05-03T12:36:37.171Z,38.60
2023-05-03T12:39:09.224Z,37.70
2023-05-03T12:44:10.281Z,40.00
2023-05-03T12:46:39.055Z,39.80
2023-05-03T12:49:08.067Z,38.90
2023-05-03T12:51:35.815Z,36.70
2023-05-03T12:54:10.039Z,38.70
2023-05-03T12:56:40.114Z,39.60
2023-05-03T12:59:39.014Z,37.20
2023-05-03T13:06:59.085Z,37.90
2023-05-03T13:09:37.905Z,39.90
2023-05-03T13:12:14.669Z,40.10
2023-05-03T13:14:42.892Z,39.60
2023-05-03T13:17:10.145Z,38.20
2023-05-03T13:19:37.700Z,36.90
2023-05-03T13:22:04.561Z,39.10
2023-05-03T13:24:31.334Z,39.60
2023-05-03T13:26:58.316Z,40.80
2023-05-03T13:29:25.241Z,43.50
2023-05-03T13:31:52.221Z,44.30
2023-05-03T13:34:19.096Z,43.00
2023-05-03T13:36:45.978Z,41.60
2023-05-03T13:39:12.751Z,42.00
2023-05-03T13:41:43.357Z,41.50
2023-05-03T13:44:10.290Z,39.80
2023-05-03T13:46:38.153Z,41.40
2023-05-03T13:49:05.508Z,40.70
2023-05-03T13:51:32.834Z,41.20
2023-05-03T13:54:00.741Z,39.60
2023-05-03T13:56:28.285Z,41.80
2023-05-03T13:58:58.385Z,41.60
2023-05-03T14:01:26.566Z,42.50
2023-05-03T14:03:54.490Z,42.80
2023-05-03T14:06:23.213Z,40.30
2023-05-03T14:08:50.311Z,42.40
2023-05-03T14:11:18.659Z,41.70
2023-05-03T14:13:56.506Z,41.10
2023-05-03T14:16:39.165Z,44.80
2023-05-03T14:19:07.858Z,43.00
2023-05-03T14:21:34.774Z,42.30
2023-05-03T14:24:01.872Z,41.20
2023-05-03T14:26:29.666Z,41.60
2023-05-03T14:28:56.945Z,41.40
2023-05-03T14:31:23.847Z,40.60
2023-05-03T14:33:50.708Z,42.20
2023-05-03T14:36:17.537Z,41.30
2023-05-03T14:38:44.481Z,40.50
2023-05-03T14:41:11.284Z,40.60
2023-05-03T14:43:38.104Z,40.10
2023-05-03T14:46:04.977Z,41.10
2023-05-03T14:48:31.798Z,41.20
2023-05-03T14:50:58.812Z,40.10
2023-05-03T14:53:25.670Z,40.20
2023-05-03T14:55:53.832Z,39.90
2023-05-03T14:58:20.693Z,41.80
2023-05-03T15:00:47.529Z,40.80
2023-05-03T15:03:14.537Z,41.20
2023-05-03T15:05:45.474Z,40.50
2023-05-03T15:08:15.161Z,41.70
2023-05-03T15:10:44.480Z,40.40
2023-05-03T15:13:12.491Z,41.30
2023-05-03T15:15:41.033Z,39.70
2023-05-03T15:18:08.902Z,39.70
2023-05-03T15:20:36.364Z,40.50
2023-05-03T15:23:06.580Z,39.60
2023-05-03T15:25:33.737Z,39.80
2023-05-03T15:28:04.302Z,40.00
2023-05-03T15:30:32.697Z,41.40
2023-05-03T15:33:01.040Z,41.00
2023-05-03T15:35:27.978Z,41.00
2023-05-03T15:37:54.772Z,40.90
2023-05-03T15:40:24.352Z,41.20
2023-05-03T15:42:52.281Z,41.50
2023-05-03T15:45:24.411Z,41.10
2023-05-03T15:47:51.242Z,41.70
2023-05-03T15:50:18.284Z,42.50
2023-05-03T15:52:46.663Z,41.90
2023-05-03T15:55:13.592Z,41.10
2023-05-03T15:57:41.009Z,40.40
2023-05-03T16:00:12.510Z,41.10
2023-05-03T16:02:40.311Z,41.10
2023-05-03T16:05:07.479Z,41.60
2023-05-03T16:07:34.370Z,42.20
2023-05-03T16:10:01.476Z,43.00
2023-05-03T16:12:28.644Z,43.50
2023-05-03T16:14:55.637Z,43.30
2023-05-03T16:17:22.513Z,43.40
2023-05-03T16:19:49.287Z,43.50
2023-05-03T16:22:16.884Z,43.90
2023-05-03T16:24:43.736Z,44.30
2023-05-03T16:27:10.708Z,44.80
2023-05-03T16:29:38.442Z,45.20
2023-05-03T16:32:09.569Z,46.10
2023-05-03T16:34:37.735Z,47.30
2023-05-03T16:37:04.701Z,47.40
2023-05-03T16:39:32.406Z,47.10
2023-05-03T16:41:59.219Z,47.90
2023-05-03T16:44:26.138Z,47.50
2023-05-03T16:46:53.323Z,47.80
2023-05-03T16:49:20.388Z,47.70
2023-05-03T16:51:47.265Z,48.10
2023-05-03T16:54:16.639Z,46.60
2023-05-03T16:56:44.188Z,47.10
2023-05-03T16:59:10.971Z,47.50
2023-05-03T17:01:37.953Z,48.80
2023-05-03T17:04:06.524Z,49.00
2023-05-03T17:06:33.639Z,49.00
2023-05-03T17:09:01.076Z,49.90
2023-05-03T17:11:28.011Z,49.90
2023-05-03T17:13:55.040Z,48.60
2023-05-03T17:16:23.018Z,48.60
2023-05-03T17:18:50.337Z,48.50
2023-05-03T17:21:19.012Z,49.60
2023-05-03T17:23:46.683Z,50.80
2023-05-03T17:26:14.199Z,52.00
2023-05-03T17:28:41.684Z,52.30
2023-05-03T17:31:08.584Z,53.00
2023-05-03T17:33:35.641Z,53.00
2023-05-03T17:36:04.947Z,53.60
2023-05-03T17:38:33.043Z,54.30
2023-05-03T17:41:07.268Z,54.50
2023-05-03T17:43:35.356Z,55.50
2023-05-03T17:46:10.729Z,55.90
2023-05-03T17:49:01.478Z,55.80
2023-05-03T17:51:31.114Z,56.90
2023-05-03T17:53:57.899Z,57.80
2023-05-03T17:59:20.810Z,58.40
2023-05-03T18:05:09.588Z,59.10
2023-05-03T18:07:36.350Z,59.10
2023-05-03T18:10:04.971Z,58.60
2023-05-03T18:12:32.352Z,58.80
2023-05-03T18:15:01.840Z,59.50
2023-05-03T18:17:29.982Z,59.50
2023-05-03T18:19:56.786Z,60.00
2023-05-03T18:22:23.751Z,60.20
2023-05-03T18:25:01.680Z,60.50
2023-05-03T18:27:28.855Z,60.30
2023-05-03T18:29:56.168Z,61.00
2023-05-03T18:32:24.091Z,60.80
2023-05-03T18:34:51.025Z,61.40
2023-05-03T18:37:37.131Z,61.70
2023-05-03T18:43:24.978Z,62.40
2023-05-03T18:46:11.123Z,62.60
2023-05-03T18:51:27.284Z,62.70
2023-05-03T18:53:56.753Z,63.30
2023-05-03T19:08:22.049Z,65.80
2023-05-03T19:10:59.246Z,65.60
2023-05-03T19:17:36.834Z,66.70
2023-05-03T19:23:05.198Z,68.70
2023-05-03T19:25:42.413Z,69.40
2023-05-03T19:28:26.426Z,69.90
2023-05-03T19:30:53.318Z,70.30
2023-05-03T19:33:21.155Z,70.60
2023-05-03T19:35:48.170Z,70.00
2023-05-03T19:38:14.999Z,69.90
2023-05-03T19:40:58.705Z,70.50
2023-05-03T19:43:26.160Z,70.30
2023-05-03T19:45:53.013Z,70.30
2023-05-03T19:48:19.908Z,69.60
2023-05-03T19:50:47.563Z,70.00
2023-05-03T19:53:14.397Z,69.50
2023-05-03T19:55:41.857Z,70.10
2023-05-03T19:58:08.726Z,68.90
2023-05-03T20:00:35.532Z,69.50
2023-05-03T20:03:02.369Z,69.60
2023-05-03T20:05:29.294Z,70.40
2023-05-03T20:07:56.118Z,70.50
2023-05-03T20:10:22.967Z,70.70
2023-05-03T20:12:49.794Z,71.60
2023-05-03T20:15:16.736Z,71.90
2023-05-03T20:17:43.524Z,71.60
2023-05-03T20:20:12.013Z,72.00
2023-05-03T20:22:38.830Z,71.80
2023-05-03T20:25:06.209Z,72.00
2023-05-03T20:27:32.981Z,72.60
2023-05-03T20:29:59.924Z,73.20
2023-05-03T20:32:27.111Z,72.10
2023-05-03T20:34:53.900Z,73.20
2023-05-03T20:37:20.692Z,74.30
2023-05-03T20:39:47.525Z,74.60
2023-05-03T20:42:14.339Z,75.20
2023-05-03T20:44:41.232Z,76.70
2023-05-03T20:47:07.960Z,77.20
2023-05-03T20:49:34.884Z,77.30
2023-05-03T20:52:01.652Z,76.90
2023-05-03T20:54:28.400Z,76.30
2023-05-03T20:56:55.979Z,76.20
2023-05-03T20:59:22.762Z,76.70
2023-05-03T21:01:49.681Z,76.10
2023-05-03T21:04:16.567Z,77.40
2023-05-03T21:06:45.196Z,78.00
2023-05-03T21:09:12.396Z,77.70
2023-05-03T21:11:39.387Z,78.30
2023-05-03T21:14:06.567Z,79.00
2023-05-03T21:16:33.448Z,78.70
2023-05-03T21:19:01.407Z,78.50
2023-05-03T21:21:28.913Z,78.70
2023-05-03T21:23:56.205Z,78.60
2023-05-03T21:26:23.417Z,79.10
2023-05-03T21:28:50.438Z,79.90
2023-05-03T21:31:17.306Z,80.10
2023-05-03T21:33:44.303Z,80.70
2023-05-03T21:36:12.528Z,80.50
2023-05-03T21:38:40.000Z,80.80
2023-05-03T21:41:07.555Z,81.60
2023-05-03T21:43:37.923Z,82.20
2023-05-03T21:46:08.308Z,81.10
2023-05-03T21:48:36.474Z,81.30
2023-05-03T21:51:04.171Z,82.20
2023-05-03T21:53:31.692Z,82.40
2023-05-03T21:55:58.536Z,83.10
2023-05-03T21:58:26.029Z,83.10
2023-05-03T22:00:52.931Z,82.80
2023-05-03T22:03:19.815Z,82.60
2023-05-03T22:05:48.730Z,83.00
2023-05-03T22:08:18.056Z,83.10
2023-05-03T22:10:45.642Z,82.90
2023-05-03T22:13:12.502Z,83.70
2023-05-03T22:15:39.791Z,83.40
2023-05-03T22:18:06.711Z,84.10
2023-05-03T22:20:33.609Z,84.30
2023-05-03T22:23:00.389Z,84.40
2023-05-03T22:25:30.097Z,84.80
2023-05-03T22:27:58.358Z,84.80
2023-05-03T22:30:25.095Z,84.80
2023-05-03T22:32:51.992Z,85.00
2023-05-03T22:35:18.999Z,85.50
2023-05-03T22:37:45.850Z,85.60
2023-05-03T22:40:12.821Z,85.60
2023-05-03T22:42:39.653Z,85.50
2023-05-03T22:45:07.041Z,85.30
2023-05-03T22:47:33.947Z,85.00
2023-05-03T22:50:00.957Z,85.30
2023-05-03T22:52:27.764Z,84.00
2023-05-03T22:54:57.589Z,85.10
2023-05-03T22:57:24.424Z,85.70
2023-05-03T22:59:51.230Z,85.60
2023-05-03T23:02:17.985Z,86.20
2023-05-03T23:04:44.865Z,86.70
2023-05-03T23:07:11.632Z,86.80
2023-05-03T23:09:38.596Z,87.10
2023-05-03T23:12:05.706Z,87.30
2023-05-03T23:14:32.665Z,87.80
2023-05-03T23:16:59.488Z,87.80
2023-05-03T23:19:26.475Z,87.00
2023-05-03T23:21:53.266Z,86.90
2023-05-03T23:24:20.164Z,87.30
2023-05-03T23:26:46.956Z,87.50
2023-05-03T23:29:14.116Z,87.10
2023-05-03T23:31:41.441Z,87.80
2023-05-03T23:34:08.494Z,88.20
2023-05-03T23:36:35.429Z,88.20
2023-05-03T23:39:02.843Z,88.20
2023-05-03T23:41:29.692Z,88.50
2023-05-03T23:43:56.408Z,88.40
2023-05-03T23:46:23.265Z,88.40
2023-05-03T23:48:50.263Z,88.40
2023-05-03T23:51:17.088Z,88.60
2023-05-03T23:53:43.917Z,88.70
2023-05-03T23:56:10.741Z,88.70
2023-05-03T23:58:37.567Z,88.60
